Huimin, China
Current Conditions -  °F | °C
As of 8:00 AM on Thursday 23 Oct 2014 (Local Time) from ZSJN Reporting Station
Haze Haze  
Wind Chill: 55°   Ceiling: Unl
Heat Index: 55°   Visibility: 0.93mi
Dew Point: 54°   Wind: 2mph
Humidity: 94%   Direction: NA
Pressure: 30.06"   Gusts: NA
Location:  37.5°N, 117.53°E
Report Text: ZSJN 230000Z VRB01MPS 1500 R01/1100N BR NSC 13/12 Q1018 BECMGTL0150 3000
Loading
Personal Weather Stations






























Interactive Weather Map
Tropical Storm Tracking
New forecast layout! Learn more

10-Day Weather Forecast

Advertisements
Track Severe Weather on mobile